sensor_id;sensor_type;location;lat;lon;timestamp;temperature;humidity
12015;DHT22;6066;48.138;16.402;2023-06-26T00:01:38;17.50;99.90
12015;DHT22;6066;48.138;16.402;2023-06-26T00:04:05;17.50;99.90
12015;DHT22;6066;48.138;16.402;2023-06-26T00:06:32;17.50;99.90
12015;DHT22;6066;48.138;16.402;2023-06-26T00:08:58;17.50;99.90
12015;DHT22;6066;48.138;16.402;2023-06-26T00:11:25;17.50;99.90
12015;DHT22;6066;48.138;16.402;2023-06-26T00:13:52;17.50;99.90
12015;DHT22;6066;48.138;16.402;2023-06-26T00:16:19;17.40;99.90
12015;DHT22;6066;48.138;16.402;2023-06-26T00:18:47;17.40;99.90
12015;DHT22;6066;48.138;16.402;2023-06-26T00:21:14;17.40;99.90
12015;DHT22;6066;48.138;16.402;2023-06-26T00:23:41;17.30;99.90
12015;DHT22;6066;48.138;16.402;2023-06-26T00:26:07;17.30;99.90
12015;DHT22;6066;48.138;16.402;2023-06-26T00:28:35;17.20;99.90
12015;DHT22;6066;48.138;16.402;2023-06-26T00:31:02;17.20;99.90
12015;DHT22;6066;48.138;16.402;2023-06-26T00:33:29;17.10;99.90
12015;DHT22;6066;48.138;16.402;2023-06-26T00:35:57;17.10;99.90
12015;DHT22;6066;48.138;16.402;2023-06-26T00:38:23;17.10;99.90
12015;DHT22;6066;48.138;16.402;2023-06-26T00:40:50;17.00;99.90
12015;DHT22;6066;48.138;16.402;2023-06-26T00:43:17;17.00;99.90
12015;DHT22;6066;48.138;16.402;2023-06-26T00:45:43;17.00;99.90
12015;DHT22;6066;48.138;16.402;2023-06-26T00:48:10;17.00;99.90
12015;DHT22;6066;48.138;16.402;2023-06-26T00:50:38;17.00;99.90
12015;DHT22;6066;48.138;16.402;2023-06-26T00:53:06;17.00;99.90
12015;DHT22;6066;48.138;16.402;2023-06-26T00:55:33;16.90;99.90
12015;DHT22;6066;48.138;16.402;2023-06-26T00:57:59;17.00;99.90
12015;DHT22;6066;48.138;16.402;2023-06-26T01:00:26;16.90;99.90
12015;DHT22;6066;48.138;16.402;2023-06-26T01:02:53;16.90;99.90
12015;DHT22;6066;48.138;16.402;2023-06-26T01:05:21;16.90;99.90
12015;DHT22;6066;48.138;16.402;2023-06-26T01:07:47;16.90;99.90
12015;DHT22;6066;48.138;16.402;2023-06-26T01:10:16;16.90;99.90
12015;DHT22;6066;48.138;16.402;2023-06-26T01:12:43;16.90;99.90
12015;DHT22;6066;48.138;16.402;2023-06-26T01:15:10;16.90;99.90
12015;DHT22;6066;48.138;16.402;2023-06-26T01:17:37;16.90;99.90
12015;DHT22;6066;48.138;16.402;2023-06-26T01:20:04;16.80;99.90
12015;DHT22;6066;48.138;16.402;2023-06-26T01:22:34;16.80;99.90
12015;DHT22;6066;48.138;16.402;2023-06-26T01:25:12;16.80;99.90
12015;DHT22;6066;48.138;16.402;2023-06-26T01:27:45;16.80;99.90
12015;DHT22;6066;48.138;16.402;2023-06-26T01:30:12;16.70;99.90
12015;DHT22;6066;48.138;16.402;2023-06-26T01:32:39;16.70;99.90
12015;DHT22;6066;48.138;16.402;2023-06-26T01:35:06;16.70;99.90
12015;DHT22;6066;48.138;16.402;2023-06-26T01:37:33;16.70;99.90
12015;DHT22;6066;48.138;16.402;2023-06-26T01:40:00;16.70;99.90
12015;DHT22;6066;48.138;16.402;2023-06-26T01:42:27;16.70;99.90
12015;DHT22;6066;48.138;16.402;2023-06-26T01:44:55;16.70;99.90
12015;DHT22;6066;48.138;16.402;2023-06-26T01:47:24;16.70;99.90
12015;DHT22;6066;48.138;16.402;2023-06-26T01:49:54;16.70;99.90
12015;DHT22;6066;48.138;16.402;2023-06-26T01:52:29;16.70;99.90
12015;DHT22;6066;48.138;16.402;2023-06-26T01:55:00;16.70;99.90
12015;DHT22;6066;48.138;16.402;2023-06-26T01:57:28;16.60;99.90
12015;DHT22;6066;48.138;16.402;2023-06-26T01:59:57;16.60;99.90
12015;DHT22;6066;48.138;16.402;2023-06-26T02:02:25;16.60;99.90
12015;DHT22;6066;48.138;16.402;2023-06-26T02:04:51;16.60;99.90
12015;DHT22;6066;48.138;16.402;2023-06-26T02:07:18;16.60;99.90
12015;DHT22;6066;48.138;16.402;2023-06-26T02:09:45;16.60;99.90
12015;DHT22;6066;48.138;16.402;2023-06-26T02:12:12;16.70;99.90
12015;DHT22;6066;48.138;16.402;2023-06-26T02:14:38;16.60;99.90
12015;DHT22;6066;48.138;16.402;2023-06-26T02:17:06;16.60;99.90
12015;DHT22;6066;48.138;16.402;2023-06-26T02:19:34;16.60;99.90
12015;DHT22;6066;48.138;16.402;2023-06-26T02:22:00;16.60;99.90
12015;DHT22;6066;48.138;16.402;2023-06-26T02:24:27;16.60;99.90
12015;DHT22;6066;48.138;16.402;2023-06-26T02:26:55;16.50;99.90
12015;DHT22;6066;48.138;16.402;2023-06-26T02:29:22;16.50;99.90
12015;DHT22;6066;48.138;16.402;2023-06-26T02:31:49;16.50;99.90
12015;DHT22;6066;48.138;16.402;2023-06-26T02:34:17;16.50;99.90
12015;DHT22;6066;48.138;16.402;2023-06-26T02:36:43;16.40;99.90
12015;DHT22;6066;48.138;16.402;2023-06-26T02:39:10;16.40;99.90
12015;DHT22;6066;48.138;16.402;2023-06-26T02:41:37;16.40;99.90
12015;DHT22;6066;48.138;16.402;2023-06-26T02:44:03;16.40;99.90
12015;DHT22;6066;48.138;16.402;2023-06-26T02:46:30;16.40;99.90
12015;DHT22;6066;48.138;16.402;2023-06-26T02:48:57;16.40;99.90
12015;DHT22;6066;48.138;16.402;2023-06-26T02:51:25;16.40;99.90
12015;DHT22;6066;48.138;16.402;2023-06-26T02:53:51;16.40;99.90
12015;DHT22;6066;48.138;16.402;2023-06-26T02:56:18;16.40;99.90
12015;DHT22;6066;48.138;16.402;2023-06-26T02:58:45;16.40;99.90
12015;DHT22;6066;48.138;16.402;2023-06-26T03:01:12;16.40;99.90
12015;DHT22;6066;48.138;16.402;2023-06-26T03:03:40;16.40;99.90
12015;DHT22;6066;48.138;16.402;2023-06-26T03:06:07;16.40;99.90
12015;DHT22;6066;48.138;16.402;2023-06-26T03:08:36;16.40;99.90
12015;DHT22;6066;48.138;16.402;2023-06-26T03:11:03;16.40;99.90
12015;DHT22;6066;48.138;16.402;2023-06-26T03:13:30;16.40;99.90
12015;DHT22;6066;48.138;16.402;2023-06-26T03:15:56;16.40;99.90
12015;DHT22;6066;48.138;16.402;2023-06-26T03:18:23;16.40;99.90
12015;DHT22;6066;48.138;16.402;2023-06-26T03:20:50;16.40;99.90
12015;DHT22;6066;48.138;16.402;2023-06-26T03:23:16;16.40;99.90
12015;DHT22;6066;48.138;16.402;2023-06-26T03:25:45;16.40;99.90
12015;DHT22;6066;48.138;16.402;2023-06-26T03:28:11;16.40;99.90
12015;DHT22;6066;48.138;16.402;2023-06-26T03:30:40;16.40;99.90
12015;DHT22;6066;48.138;16.402;2023-06-26T03:33:07;16.40;99.90
12015;DHT22;6066;48.138;16.402;2023-06-26T03:35:33;16.40;99.90
12015;DHT22;6066;48.138;16.402;2023-06-26T03:38:00;16.40;99.90
12015;DHT22;6066;48.138;16.402;2023-06-26T03:40:27;16.40;99.90
12015;DHT22;6066;48.138;16.402;2023-06-26T03:42:55;16.40;99.90
12015;DHT22;6066;48.138;16.402;2023-06-26T03:45:23;16.50;99.90
12015;DHT22;6066;48.138;16.402;2023-06-26T03:47:50;16.50;99.90
12015;DHT22;6066;48.138;16.402;2023-06-26T03:50:17;16.50;99.90
12015;DHT22;6066;48.138;16.402;2023-06-26T03:52:44;16.50;99.90
12015;DHT22;6066;48.138;16.402;2023-06-26T03:55:10;16.50;99.90
12015;DHT22;6066;48.138;16.402;2023-06-26T03:57:37;16.50;99.90
12015;DHT22;6066;48.138;16.402;2023-06-26T04:00:06;16.60;99.90
12015;DHT22;6066;48.138;16.402;2023-06-26T04:02:34;16.70;99.90
12015;DHT22;6066;48.138;16.402;2023-06-26T04:05:01;16.70;99.90
12015;DHT22;6066;48.138;16.402;2023-06-26T04:07:28;16.70;99.90
12015;DHT22;6066;48.138;16.402;2023-06-26T04:09:56;16.70;99.90
12015;DHT22;6066;48.138;16.402;2023-06-26T04:12:23;16.80;99.90
12015;DHT22;6066;48.138;16.402;2023-06-26T04:14:49;16.80;99.90
12015;DHT22;6066;48.138;16.402;2023-06-26T04:17:17;16.90;99.90
12015;DHT22;6066;48.138;16.402;2023-06-26T04:19:45;16.90;99.90
12015;DHT22;6066;48.138;16.402;2023-06-26T04:22:11;17.00;99.90
12015;DHT22;6066;48.138;16.402;2023-06-26T04:24:38;17.10;99.90
12015;DHT22;6066;48.138;16.402;2023-06-26T04:27:05;17.20;99.90
12015;DHT22;6066;48.138;16.402;2023-06-26T04:29:32;17.20;99.90
12015;DHT22;6066;48.138;16.402;2023-06-26T04:31:58;17.30;99.90
12015;DHT22;6066;48.138;16.402;2023-06-26T04:34:27;17.30;99.90
12015;DHT22;6066;48.138;16.402;2023-06-26T04:36:57;17.40;99.90
12015;DHT22;6066;48.138;16.402;2023-06-26T04:39:24;17.50;99.90
12015;DHT22;6066;48.138;16.402;2023-06-26T04:41:51;17.50;99.90
12015;DHT22;6066;48.138;16.402;2023-06-26T04:44:18;17.60;99.90
12015;DHT22;6066;48.138;16.402;2023-06-26T04:46:44;17.70;99.90
12015;DHT22;6066;48.138;16.402;2023-06-26T04:49:11;17.80;99.90
12015;DHT22;6066;48.138;16.402;2023-06-26T04:51:40;17.90;99.90
12015;DHT22;6066;48.138;16.402;2023-06-26T04:54:06;18.00;99.90
12015;DHT22;6066;48.138;16.402;2023-06-26T04:56:33;18.00;99.90
12015;DHT22;6066;48.138;16.402;2023-06-26T04:59:00;18.10;99.90
12015;DHT22;6066;48.138;16.402;2023-06-26T05:01:27;18.30;99.90
12015;DHT22;6066;48.138;16.402;2023-06-26T05:03:55;18.40;99.90
12015;DHT22;6066;48.138;16.402;2023-06-26T05:06:21;18.50;99.90
12015;DHT22;6066;48.138;16.402;2023-06-26T05:08:49;18.60;99.90
12015;DHT22;6066;48.138;16.402;2023-06-26T05:11:16;18.70;99.90
12015;DHT22;6066;48.138;16.402;2023-06-26T05:13:43;18.70;99.90
12015;DHT22;6066;48.138;16.402;2023-06-26T05:16:10;18.80;99.90
12015;DHT22;6066;48.138;16.402;2023-06-26T05:18:36;18.90;99.90
12015;DHT22;6066;48.138;16.402;2023-06-26T05:21:03;19.00;99.90
12015;DHT22;6066;48.138;16.402;2023-06-26T05:23:30;19.00;99.90
12015;DHT22;6066;48.138;16.402;2023-06-26T05:25:59;19.10;99.90
12015;DHT22;6066;48.138;16.402;2023-06-26T05:28:26;19.10;99.90
12015;DHT22;6066;48.138;16.402;2023-06-26T05:30:53;19.20;99.90
12015;DHT22;6066;48.138;16.402;2023-06-26T05:33:21;19.30;99.90
12015;DHT22;6066;48.138;16.402;2023-06-26T05:35:49;19.40;99.90
12015;DHT22;6066;48.138;16.402;2023-06-26T05:38:17;19.50;99.90
12015;DHT22;6066;48.138;16.402;2023-06-26T05:40:44;19.50;99.90
12015;DHT22;6066;48.138;16.402;2023-06-26T05:43:13;19.60;99.90
12015;DHT22;6066;48.138;16.402;2023-06-26T05:45:40;19.80;99.90
12015;DHT22;6066;48.138;16.402;2023-06-26T05:48:06;19.90;99.90
12015;DHT22;6066;48.138;16.402;2023-06-26T05:50:33;20.00;99.90
12015;DHT22;6066;48.138;16.402;2023-06-26T05:53:01;20.00;99.90
12015;DHT22;6066;48.138;16.402;2023-06-26T05:55:28;20.10;99.90
12015;DHT22;6066;48.138;16.402;2023-06-26T05:57:55;20.20;99.90
12015;DHT22;6066;48.138;16.402;2023-06-26T06:00:26;20.30;99.90
12015;DHT22;6066;48.138;16.402;2023-06-26T06:02:53;20.40;99.90
12015;DHT22;6066;48.138;16.402;2023-06-26T06:05:20;20.50;99.90
12015;DHT22;6066;48.138;16.402;2023-06-26T06:07:46;20.60;99.90
12015;DHT22;6066;48.138;16.402;2023-06-26T06:10:13;20.70;99.90
12015;DHT22;6066;48.138;16.402;2023-06-26T06:12:40;20.70;99.90
12015;DHT22;6066;48.138;16.402;2023-06-26T06:15:07;20.80;99.90
12015;DHT22;6066;48.138;16.402;2023-06-26T06:17:35;20.90;99.90
12015;DHT22;6066;48.138;16.402;2023-06-26T06:20:02;20.90;99.90
12015;DHT22;6066;48.138;16.402;2023-06-26T06:22:29;20.90;99.90
12015;DHT22;6066;48.138;16.402;2023-06-26T06:24:56;21.00;99.90
12015;DHT22;6066;48.138;16.402;2023-06-26T06:27:23;21.10;99.90
12015;DHT22;6066;48.138;16.402;2023-06-26T06:29:49;21.10;99.90
12015;DHT22;6066;48.138;16.402;2023-06-26T06:32:16;21.20;99.90
12015;DHT22;6066;48.138;16.402;2023-06-26T06:34:44;21.20;99.90
12015;DHT22;6066;48.138;16.402;2023-06-26T06:37:11;21.20;99.90
12015;DHT22;6066;48.138;16.402;2023-06-26T06:39:38;21.30;99.90
12015;DHT22;6066;48.138;16.402;2023-06-26T06:42:04;21.40;99.90
12015;DHT22;6066;48.138;16.402;2023-06-26T06:44:31;21.40;99.90
12015;DHT22;6066;48.138;16.402;2023-06-26T06:46:58;21.50;99.90
12015;DHT22;6066;48.138;16.402;2023-06-26T06:49:25;21.60;99.90
12015;DHT22;6066;48.138;16.402;2023-06-26T06:51:53;21.70;99.90
12015;DHT22;6066;48.138;16.402;2023-06-26T06:54:19;21.70;99.90
12015;DHT22;6066;48.138;16.402;2023-06-26T06:56:46;21.80;99.90
12015;DHT22;6066;48.138;16.402;2023-06-26T06:59:13;21.90;99.90
12015;DHT22;6066;48.138;16.402;2023-06-26T07:01:40;22.00;99.90
12015;DHT22;6066;48.138;16.402;2023-06-26T07:04:06;22.00;99.90
12015;DHT22;6066;48.138;16.402;2023-06-26T07:06:33;22.10;99.90
12015;DHT22;6066;48.138;16.402;2023-06-26T07:09:01;22.10;99.90
12015;DHT22;6066;48.138;16.402;2023-06-26T07:11:28;22.20;99.90
12015;DHT22;6066;48.138;16.402;2023-06-26T07:13:55;22.30;99.90
12015;DHT22;6066;48.138;16.402;2023-06-26T07:16:22;22.30;99.90
12015;DHT22;6066;48.138;16.402;2023-06-26T07:18:48;22.40;99.90
12015;DHT22;6066;48.138;16.402;2023-06-26T07:21:17;22.50;99.90
12015;DHT22;6066;48.138;16.402;2023-06-26T07:23:44;22.50;99.90
12015;DHT22;6066;48.138;16.402;2023-06-26T07:26:13;22.50;99.90
12015;DHT22;6066;48.138;16.402;2023-06-26T07:28:40;22.60;99.90
12015;DHT22;6066;48.138;16.402;2023-06-26T07:31:07;22.60;99.90
12015;DHT22;6066;48.138;16.402;2023-06-26T07:33:33;22.70;99.90
12015;DHT22;6066;48.138;16.402;2023-06-26T07:36:00;22.80;99.90
12015;DHT22;6066;48.138;16.402;2023-06-26T07:38:27;22.80;99.90
12015;DHT22;6066;48.138;16.402;2023-06-26T07:40:53;22.90;99.90
12015;DHT22;6066;48.138;16.402;2023-06-26T07:43:21;22.90;99.90
12015;DHT22;6066;48.138;16.402;2023-06-26T07:45:49;22.90;99.90
12015;DHT22;6066;48.138;16.402;2023-06-26T07:48:16;23.00;99.90
12015;DHT22;6066;48.138;16.402;2023-06-26T07:50:43;23.10;99.90
12015;DHT22;6066;48.138;16.402;2023-06-26T07:53:10;23.10;99.90
12015;DHT22;6066;48.138;16.402;2023-06-26T07:55:36;23.20;99.90
12015;DHT22;6066;48.138;16.402;2023-06-26T07:58:03;23.30;99.90
12015;DHT22;6066;48.138;16.402;2023-06-26T08:00:31;23.40;99.90
12015;DHT22;6066;48.138;16.402;2023-06-26T08:02:58;23.50;99.90
12015;DHT22;6066;48.138;16.402;2023-06-26T08:05:24;23.50;99.90
12015;DHT22;6066;48.138;16.402;2023-06-26T08:07:51;23.50;99.90
12015;DHT22;6066;48.138;16.402;2023-06-26T08:10:18;23.60;99.90
12015;DHT22;6066;48.138;16.402;2023-06-26T08:12:45;23.70;99.90
12015;DHT22;6066;48.138;16.402;2023-06-26T08:15:12;23.80;99.90
12015;DHT22;6066;48.138;16.402;2023-06-26T08:17:40;23.80;99.90
12015;DHT22;6066;48.138;16.402;2023-06-26T08:20:07;23.90;99.90
12015;DHT22;6066;48.138;16.402;2023-06-26T08:22:34;24.00;99.90
12015;DHT22;6066;48.138;16.402;2023-06-26T08:25:02;24.10;99.90
12015;DHT22;6066;48.138;16.402;2023-06-26T08:27:29;24.20;99.90
12015;DHT22;6066;48.138;16.402;2023-06-26T08:29:55;24.20;99.90
12015;DHT22;6066;48.138;16.402;2023-06-26T08:32:22;24.30;99.90
12015;DHT22;6066;48.138;16.402;2023-06-26T08:34:50;24.30;99.90
12015;DHT22;6066;48.138;16.402;2023-06-26T08:37:17;24.50;99.90
12015;DHT22;6066;48.138;16.402;2023-06-26T08:39:44;24.50;99.90
12015;DHT22;6066;48.138;16.402;2023-06-26T08:42:10;24.60;99.90
12015;DHT22;6066;48.138;16.402;2023-06-26T08:44:37;24.70;99.90
12015;DHT22;6066;48.138;16.402;2023-06-26T08:47:04;24.80;99.90
12015;DHT22;6066;48.138;16.402;2023-06-26T08:49:34;24.90;99.90
12015;DHT22;6066;48.138;16.402;2023-06-26T08:52:06;24.90;99.90
12015;DHT22;6066;48.138;16.402;2023-06-26T08:54:36;25.10;99.90
12015;DHT22;6066;48.138;16.402;2023-06-26T08:57:04;25.20;99.90
12015;DHT22;6066;48.138;16.402;2023-06-26T08:59:32;25.30;99.90
12015;DHT22;6066;48.138;16.402;2023-06-26T09:01:59;25.40;99.90
12015;DHT22;6066;48.138;16.402;2023-06-26T09:04:25;25.40;99.90
12015;DHT22;6066;48.138;16.402;2023-06-26T09:06:52;25.50;99.90
12015;DHT22;6066;48.138;16.402;2023-06-26T09:09:20;25.60;99.90
12015;DHT22;6066;48.138;16.402;2023-06-26T09:11:47;25.60;99.90
12015;DHT22;6066;48.138;16.402;2023-06-26T09:14:13;25.70;99.90
12015;DHT22;6066;48.138;16.402;2023-06-26T09:16:40;25.70;99.90
12015;DHT22;6066;48.138;16.402;2023-06-26T09:19:11;25.80;99.90
12015;DHT22;6066;48.138;16.402;2023-06-26T09:21:38;25.90;99.90
12015;DHT22;6066;48.138;16.402;2023-06-26T09:24:06;25.90;99.90
12015;DHT22;6066;48.138;16.402;2023-06-26T09:26:34;25.90;99.90
12015;DHT22;6066;48.138;16.402;2023-06-26T09:29:01;26.00;99.90
12015;DHT22;6066;48.138;16.402;2023-06-26T09:31:28;26.20;99.90
12015;DHT22;6066;48.138;16.402;2023-06-26T09:33:55;26.30;99.90
12015;DHT22;6066;48.138;16.402;2023-06-26T09:36:26;26.40;99.90
12015;DHT22;6066;48.138;16.402;2023-06-26T09:38:52;26.50;99.90
12015;DHT22;6066;48.138;16.402;2023-06-26T09:41:19;26.50;99.90
12015;DHT22;6066;48.138;16.402;2023-06-26T09:43:47;26.60;99.90
12015;DHT22;6066;48.138;16.402;2023-06-26T09:46:15;26.70;99.90
12015;DHT22;6066;48.138;16.402;2023-06-26T09:48:41;26.80;99.90
12015;DHT22;6066;48.138;16.402;2023-06-26T09:51:09;27.00;99.90
12015;DHT22;6066;48.138;16.402;2023-06-26T09:53:36;27.10;99.90
12015;DHT22;6066;48.138;16.402;2023-06-26T09:56:04;27.10;99.90
12015;DHT22;6066;48.138;16.402;2023-06-26T09:58:32;26.80;99.90
12015;DHT22;6066;48.138;16.402;2023-06-26T10:01:01;26.70;99.90
12015;DHT22;6066;48.138;16.402;2023-06-26T10:03:28;26.70;99.90
12015;DHT22;6066;48.138;16.402;2023-06-26T10:05:55;26.80;99.90
12015;DHT22;6066;48.138;16.402;2023-06-26T10:08:22;26.90;99.90
12015;DHT22;6066;48.138;16.402;2023-06-26T10:10:49;27.00;99.90
12015;DHT22;6066;48.138;16.402;2023-06-26T10:13:16;27.10;99.90
12015;DHT22;6066;48.138;16.402;2023-06-26T10:15:45;27.20;99.90
12015;DHT22;6066;48.138;16.402;2023-06-26T10:18:14;27.30;99.90
12015;DHT22;6066;48.138;16.402;2023-06-26T10:20:42;27.40;99.90
12015;DHT22;6066;48.138;16.402;2023-06-26T10:23:09;27.40;99.90
12015;DHT22;6066;48.138;16.402;2023-06-26T10:25:37;27.40;99.90
12015;DHT22;6066;48.138;16.402;2023-06-26T10:28:04;27.10;99.90
12015;DHT22;6066;48.138;16.402;2023-06-26T10:30:31;26.90;99.90
12015;DHT22;6066;48.138;16.402;2023-06-26T10:32:59;26.60;99.90
12015;DHT22;6066;48.138;16.402;2023-06-26T10:35:27;26.40;99.90
12015;DHT22;6066;48.138;16.402;2023-06-26T10:37:59;26.40;99.90
12015;DHT22;6066;48.138;16.402;2023-06-26T10:40:26;26.60;99.90
12015;DHT22;6066;48.138;16.402;2023-06-26T10:43:05;26.90;99.90
12015;DHT22;6066;48.138;16.402;2023-06-26T10:45:32;27.10;99.90
12015;DHT22;6066;48.138;16.402;2023-06-26T10:47:59;27.20;99.90
12015;DHT22;6066;48.138;16.402;2023-06-26T10:50:28;27.10;99.90
12015;DHT22;6066;48.138;16.402;2023-06-26T10:53:07;27.10;99.90
12015;DHT22;6066;48.138;16.402;2023-06-26T10:55:33;27.20;99.90
12015;DHT22;6066;48.138;16.402;2023-06-26T10:58:00;27.30;99.90
12015;DHT22;6066;48.138;16.402;2023-06-26T11:00:28;27.50;99.90
12015;DHT22;6066;48.138;16.402;2023-06-26T11:02:55;27.60;99.90
12015;DHT22;6066;48.138;16.402;2023-06-26T11:05:25;27.60;99.90
12015;DHT22;6066;48.138;16.402;2023-06-26T11:08:06;27.70;99.90
12015;DHT22;6066;48.138;16.402;2023-06-26T11:13:23;27.60;99.90
12015;DHT22;6066;48.138;16.402;2023-06-26T11:15:51;27.70;99.90
12015;DHT22;6066;48.138;16.402;2023-06-26T11:18:19;27.90;99.90
12015;DHT22;6066;48.138;16.402;2023-06-26T11:20:46;28.10;99.90
12015;DHT22;6066;48.138;16.402;2023-06-26T11:23:14;28.30;99.90
12015;DHT22;6066;48.138;16.402;2023-06-26T11:25:45;28.40;99.90
12015;DHT22;6066;48.138;16.402;2023-06-26T11:28:12;28.50;99.90
12015;DHT22;6066;48.138;16.402;2023-06-26T11:30:38;28.50;99.90
12015;DHT22;6066;48.138;16.402;2023-06-26T11:33:07;28.60;99.90
12015;DHT22;6066;48.138;16.402;2023-06-26T11:35:34;28.70;99.90
12015;DHT22;6066;48.138;16.402;2023-06-26T11:38:01;28.70;99.90
12015;DHT22;6066;48.138;16.402;2023-06-26T11:40:32;28.70;99.90
12015;DHT22;6066;48.138;16.402;2023-06-26T11:42:59;28.70;99.90
12015;DHT22;6066;48.138;16.402;2023-06-26T11:45:27;28.70;99.90
12015;DHT22;6066;48.138;16.402;2023-06-26T11:47:54;28.70;99.90
12015;DHT22;6066;48.138;16.402;2023-06-26T11:50:21;28.80;99.90
12015;DHT22;6066;48.138;16.402;2023-06-26T11:52:52;28.90;99.90
12015;DHT22;6066;48.138;16.402;2023-06-26T11:55:19;29.00;99.90
12015;DHT22;6066;48.138;16.402;2023-06-26T11:57:49;29.10;99.90
12015;DHT22;6066;48.138;16.402;2023-06-26T12:00:16;29.10;99.90
12015;DHT22;6066;48.138;16.402;2023-06-26T12:02:43;29.00;99.90
12015;DHT22;6066;48.138;16.402;2023-06-26T12:05:10;29.00;99.90
12015;DHT22;6066;48.138;16.402;2023-06-26T12:07:37;29.10;99.90
12015;DHT22;6066;48.138;16.402;2023-06-26T12:10:04;29.00;99.90
12015;DHT22;6066;48.138;16.402;2023-06-26T12:12:31;28.60;99.90
12015;DHT22;6066;48.138;16.402;2023-06-26T12:15:00;28.40;99.90
12015;DHT22;6066;48.138;16.402;2023-06-26T12:17:27;28.40;99.90
12015;DHT22;6066;48.138;16.402;2023-06-26T12:19:54;28.50;99.90
12015;DHT22;6066;48.138;16.402;2023-06-26T12:22:24;28.70;99.90
12015;DHT22;6066;48.138;16.402;2023-06-26T12:24:51;28.70;99.90
12015;DHT22;6066;48.138;16.402;2023-06-26T12:27:18;28.90;99.90
12015;DHT22;6066;48.138;16.402;2023-06-26T12:29:50;28.90;99.90
12015;DHT22;6066;48.138;16.402;2023-06-26T12:32:19;28.90;99.90
12015;DHT22;6066;48.138;16.402;2023-06-26T12:34:47;28.90;99.90
12015;DHT22;6066;48.138;16.402;2023-06-26T12:37:14;28.90;99.90
12015;DHT22;6066;48.138;16.402;2023-06-26T12:39:48;29.00;99.90
12015;DHT22;6066;48.138;16.402;2023-06-26T12:42:15;29.00;99.90
12015;DHT22;6066;48.138;16.402;2023-06-26T12:44:42;29.00;99.90
12015;DHT22;6066;48.138;16.402;2023-06-26T12:47:10;29.00;99.90
12015;DHT22;6066;48.138;16.402;2023-06-26T12:49:40;29.10;99.90
12015;DHT22;6066;48.138;16.402;2023-06-26T12:52:08;29.30;99.90
12015;DHT22;6066;48.138;16.402;2023-06-26T12:54:38;29.20;99.90
12015;DHT22;6066;48.138;16.402;2023-06-26T12:57:05;28.90;99.90
12015;DHT22;6066;48.138;16.402;2023-06-26T12:59:32;28.90;99.90
12015;DHT22;6066;48.138;16.402;2023-06-26T13:01:59;28.90;99.90
12015;DHT22;6066;48.138;16.402;2023-06-26T13:04:26;28.80;99.90
12015;DHT22;6066;48.138;16.402;2023-06-26T13:06:54;28.50;99.90
12015;DHT22;6066;48.138;16.402;2023-06-26T13:09:21;28.30;99.90
12015;DHT22;6066;48.138;16.402;2023-06-26T13:11:48;28.40;99.90
12015;DHT22;6066;48.138;16.402;2023-06-26T13:14:15;28.50;99.90
12015;DHT22;6066;48.138;16.402;2023-06-26T13:16:42;28.60;99.90
12015;DHT22;6066;48.138;16.402;2023-06-26T13:19:09;28.70;99.90
12015;DHT22;6066;48.138;16.402;2023-06-26T13:21:36;28.70;99.90
12015;DHT22;6066;48.138;16.402;2023-06-26T13:24:04;28.80;99.90
12015;DHT22;6066;48.138;16.402;2023-06-26T13:26:31;28.80;99.90
12015;DHT22;6066;48.138;16.402;2023-06-26T13:28:58;28.90;99.90
12015;DHT22;6066;48.138;16.402;2023-06-26T13:31:24;29.00;99.90
12015;DHT22;6066;48.138;16.402;2023-06-26T13:33:53;29.10;99.90
12015;DHT22;6066;48.138;16.402;2023-06-26T13:36:20;29.20;99.90
12015;DHT22;6066;48.138;16.402;2023-06-26T13:38:47;29.10;99.90
12015;DHT22;6066;48.138;16.402;2023-06-26T13:41:22;29.00;99.90
12015;DHT22;6066;48.138;16.402;2023-06-26T13:43:49;28.90;99.90
12015;DHT22;6066;48.138;16.402;2023-06-26T13:46:15;28.90;99.90
12015;DHT22;6066;48.138;16.402;2023-06-26T13:48:42;28.90;99.90
12015;DHT22;6066;48.138;16.402;2023-06-26T13:51:09;29.00;99.90
12015;DHT22;6066;48.138;16.402;2023-06-26T13:53:36;29.10;99.90
12015;DHT22;6066;48.138;16.402;2023-06-26T13:56:02;29.20;99.90
12015;DHT22;6066;48.138;16.402;2023-06-26T13:58:31;29.30;99.90
12015;DHT22;6066;48.138;16.402;2023-06-26T14:00:58;29.40;99.90
12015;DHT22;6066;48.138;16.402;2023-06-26T14:03:26;29.40;99.90
12015;DHT22;6066;48.138;16.402;2023-06-26T14:05:52;29.60;99.90
12015;DHT22;6066;48.138;16.402;2023-06-26T14:08:19;29.80;99.90
12015;DHT22;6066;48.138;16.402;2023-06-26T14:10:46;29.80;99.90
12015;DHT22;6066;48.138;16.402;2023-06-26T14:13:13;29.80;99.90
12015;DHT22;6066;48.138;16.402;2023-06-26T14:15:42;29.70;99.90
12015;DHT22;6066;48.138;16.402;2023-06-26T14:18:09;29.60;99.90
12015;DHT22;6066;48.138;16.402;2023-06-26T14:20:36;29.40;99.90
12015;DHT22;6066;48.138;16.402;2023-06-26T14:23:02;29.40;99.90
12015;DHT22;6066;48.138;16.402;2023-06-26T14:25:29;29.50;99.90
12015;DHT22;6066;48.138;16.402;2023-06-26T14:27:56;29.40;99.90
12015;DHT22;6066;48.138;16.402;2023-06-26T14:30:23;29.30;99.90
12015;DHT22;6066;48.138;16.402;2023-06-26T14:32:51;29.30;99.90
12015;DHT22;6066;48.138;16.402;2023-06-26T14:35:18;29.30;99.90
12015;DHT22;6066;48.138;16.402;2023-06-26T14:37:44;29.40;99.90
12015;DHT22;6066;48.138;16.402;2023-06-26T14:40:11;29.50;99.90
12015;DHT22;6066;48.138;16.402;2023-06-26T14:42:38;29.70;99.90
12015;DHT22;6066;48.138;16.402;2023-06-26T14:45:05;29.90;99.90
12015;DHT22;6066;48.138;16.402;2023-06-26T14:47:32;30.00;99.90
12015;DHT22;6066;48.138;16.402;2023-06-26T14:50:01;29.90;99.90
12015;DHT22;6066;48.138;16.402;2023-06-26T14:52:27;29.80;99.90
12015;DHT22;6066;48.138;16.402;2023-06-26T14:54:54;29.60;99.90
12015;DHT22;6066;48.138;16.402;2023-06-26T14:57:21;29.50;99.90
12015;DHT22;6066;48.138;16.402;2023-06-26T14:59:47;29.50;99.90
12015;DHT22;6066;48.138;16.402;2023-06-26T15:02:14;29.60;99.90
12015;DHT22;6066;48.138;16.402;2023-06-26T15:04:41;29.60;99.90
12015;DHT22;6066;48.138;16.402;2023-06-26T15:07:09;29.50;99.90
12015;DHT22;6066;48.138;16.402;2023-06-26T15:09:36;29.40;99.90
12015;DHT22;6066;48.138;16.402;2023-06-26T15:12:03;29.40;99.90
12015;DHT22;6066;48.138;16.402;2023-06-26T15:14:30;29.40;99.90
12015;DHT22;6066;48.138;16.402;2023-06-26T15:16:56;29.40;99.90
12015;DHT22;6066;48.138;16.402;2023-06-26T15:19:23;29.30;99.90
12015;DHT22;6066;48.138;16.402;2023-06-26T15:21:50;29.20;99.90
12015;DHT22;6066;48.138;16.402;2023-06-26T15:24:18;29.20;99.90
12015;DHT22;6066;48.138;16.402;2023-06-26T15:26:44;29.30;99.90
12015;DHT22;6066;48.138;16.402;2023-06-26T15:29:11;29.30;99.90
12015;DHT22;6066;48.138;16.402;2023-06-26T15:31:40;29.40;99.90
12015;DHT22;6066;48.138;16.402;2023-06-26T15:34:06;29.40;99.90